Time;durP1;ratioP1;P1;durP2;ratioP2;P2;SDS_P1;SDS_P2;PMS_P1;PMS_P2;Temp;Humidity;BMP_temperature;BMP_pressure;BME280_temperature;BME280_humidity;BME280_pressure;Samples;Min_cycle;Max_cycle;Signal;HPM_P1;HPM_P2
2021/09/14 00:01:41;;;;;;;;;;;24.70;99.90;;;;;;1826736;78;20373;-90
2021/09/14 00:04:12;;;;;;;;;;;24.60;99.90;;;;;;1884281;76;20426;-89
2021/09/14 00:06:41;;;;;;;;;;;24.80;99.90;;;;;;1884315;76;20215;-87
2021/09/14 00:09:11;;;;;;;;;;;24.90;99.90;;;;;;1867619;76;20213;-90
2021/09/14 00:11:53;;;;;;;;;;;24.60;99.90;;;;;;1877845;76;20179;-90
2021/09/14 00:14:22;;;;;;;;;;;24.70;99.90;;;;;;1809906;77;20184;-89
2021/09/14 00:16:52;;;;;;;;;;;24.60;99.90;;;;;;1819266;78;21054;-89
2021/09/14 00:22:32;;;;;;;;;;;24.60;99.90;;;;;;1839766;78;20201;-90
2021/09/14 00:25:01;;;;;;;;;;;24.80;99.90;;;;;;1845827;78;20217;-90
2021/09/14 00:27:31;;;;;;;;;;;24.70;99.90;;;;;;1842424;77;20452;-89
2021/09/14 00:36:02;;;;;;;;;;;25.00;99.90;;;;;;1844214;77;20190;-90
2021/09/14 00:38:31;;;;;;;;;;;25.00;99.90;;;;;;1842510;77;20242;-89
2021/09/14 00:58:37;;;;;;;;;;;25.20;99.90;;;;;;1786390;80;20544;-89
2021/09/14 01:04:30;;;;;;;;;;;25.30;99.90;;;;;;1775685;80;20210;-89
2021/09/14 01:07:02;;;;;;;;;;;25.40;99.90;;;;;;1820914;78;20176;-90
2021/09/14 01:12:41;;;;;;;;;;;25.10;99.90;;;;;;1822790;78;20406;-89
2021/09/14 01:15:11;;;;;;;;;;;25.00;99.90;;;;;;1807200;78;20493;-88
2021/09/14 01:17:41;;;;;;;;;;;25.20;99.90;;;;;;1804798;78;20239;-90
2021/09/14 01:20:10;;;;;;;;;;;25.40;99.90;;;;;;1819332;78;20168;-89
2021/09/14 01:22:40;;;;;;;;;;;25.00;99.90;;;;;;1820406;78;20293;-90
2021/09/14 01:25:11;;;;;;;;;;;25.40;99.90;;;;;;1803240;79;20204;-91
2021/09/14 01:27:59;;;;;;;;;;;25.30;99.90;;;;;;1831934;77;20234;-91
2021/09/14 01:43:25;;;;;;;;;;;25.20;99.90;;;;;;1747526;81;20266;-90
2021/09/14 01:45:54;;;;;;;;;;;25.00;99.90;;;;;;1765177;81;20172;-90
2021/09/14 01:51:25;;;;;;;;;;;25.10;99.90;;;;;;1737732;82;20289;-90
2021/09/14 01:53:55;;;;;;;;;;;25.10;99.90;;;;;;1744257;82;20220;-91
2021/09/14 01:56:24;;;;;;;;;;;25.10;99.90;;;;;;1767409;80;20459;-91
2021/09/14 01:58:54;;;;;;;;;;;25.10;99.90;;;;;;1764411;80;20205;-90
2021/09/14 02:01:28;;;;;;;;;;;25.20;99.90;;;;;;1772964;80;20228;-91
2021/09/14 03:00:28;;;;;;;;;;;25.60;99.90;;;;;;1829761;77;20251;-80
2021/09/14 03:02:58;;;;;;;;;;;25.60;99.90;;;;;;1811336;77;20237;-80
2021/09/14 03:05:30;;;;;;;;;;;25.60;99.90;;;;;;1911499;75;20494;-80
2021/09/14 03:08:08;;;;;;;;;;;25.70;99.90;;;;;;1911076;75;20369;-80
2021/09/14 03:10:38;;;;;;;;;;;25.70;99.90;;;;;;1906067;74;20223;-80
2021/09/14 03:13:10;;;;;;;;;;;25.70;99.90;;;;;;1909106;75;20473;-80
2021/09/14 03:15:43;;;;;;;;;;;25.60;99.90;;;;;;1877830;76;20164;-81
2021/09/14 03:18:13;;;;;;;;;;;25.50;99.90;;;;;;1909413;73;20204;-81
2021/09/14 03:20:42;;;;;;;;;;;25.50;99.90;;;;;;1920277;73;20517;-80
2021/09/14 03:23:13;;;;;;;;;;;25.40;99.90;;;;;;1898210;75;20216;-81
2021/09/14 03:25:43;;;;;;;;;;;25.40;99.90;;;;;;1911366;75;20200;-81
2021/09/14 03:28:13;;;;;;;;;;;25.40;99.90;;;;;;1911882;75;20138;-79
2021/09/14 03:30:48;;;;;;;;;;;25.40;99.90;;;;;;1904282;75;20581;-79
2021/09/14 03:33:20;;;;;;;;;;;25.50;99.90;;;;;;1901650;75;20294;-82
2021/09/14 03:35:50;;;;;;;;;;;25.40;99.90;;;;;;1904924;75;20606;-80
2021/09/14 03:38:20;;;;;;;;;;;25.50;99.90;;;;;;1877558;76;20227;-80
2021/09/14 03:40:50;;;;;;;;;;;25.50;99.90;;;;;;1911452;74;20231;-79
2021/09/14 03:43:20;;;;;;;;;;;25.50;99.90;;;;;;1901883;75;20247;-79
2021/09/14 03:49:02;;;;;;;;;;;25.50;99.90;;;;;;1908715;75;20208;-78
2021/09/14 03:51:31;;;;;;;;;;;25.50;99.90;;;;;;1914632;74;20236;-79
2021/09/14 03:54:01;;;;;;;;;;;25.50;99.90;;;;;;1914585;75;20416;-78
2021/09/14 03:56:33;;;;;;;;;;;25.50;99.90;;;;;;1914727;75;20537;-79
2021/09/14 03:59:03;;;;;;;;;;;25.70;99.90;;;;;;1914682;75;20278;-79
2021/09/14 04:01:40;;;;;;;;;;;25.70;99.90;;;;;;1906771;75;20192;-79
2021/09/14 04:04:19;;;;;;;;;;;25.60;99.90;;;;;;1914087;75;20192;-79
2021/09/14 04:09:28;;;;;;;;;;;25.70;99.90;;;;;;1869232;76;20261;-79
2021/09/14 04:11:58;;;;;;;;;;;25.70;99.90;;;;;;1845482;78;20222;-80
2021/09/14 04:14:29;;;;;;;;;;;25.70;99.90;;;;;;1856687;77;20544;-79
2021/09/14 04:16:59;;;;;;;;;;;25.70;99.90;;;;;;1845347;78;20142;-79
2021/09/14 04:19:28;;;;;;;;;;;25.80;99.90;;;;;;1858620;76;20201;-80
2021/09/14 04:21:58;;;;;;;;;;;25.80;99.90;;;;;;1846289;78;20236;-79
2021/09/14 04:24:28;;;;;;;;;;;25.80;99.90;;;;;;1855529;77;20178;-79
2021/09/14 04:26:57;;;;;;;;;;;25.80;99.90;;;;;;1855153;77;20234;-80
2021/09/14 04:29:27;;;;;;;;;;;25.80;99.90;;;;;;1857981;76;20197;-80
2021/09/14 04:31:57;;;;;;;;;;;25.80;99.90;;;;;;1844958;78;20225;-79
2021/09/14 04:34:26;;;;;;;;;;;25.90;99.90;;;;;;1858898;76;20169;-80
2021/09/14 04:36:56;;;;;;;;;;;25.90;99.90;;;;;;1839376;78;21094;-79
2021/09/14 04:39:28;;;;;;;;;;;26.00;99.90;;;;;;1843733;76;20285;-79
2021/09/14 04:42:00;;;;;;;;;;;26.00;99.90;;;;;;1838339;78;20656;-80
2021/09/14 04:44:30;;;;;;;;;;;26.00;99.90;;;;;;1847545;76;20163;-80
2021/09/14 04:47:00;;;;;;;;;;;26.10;99.90;;;;;;1835346;77;20127;-79
2021/09/14 04:49:29;;;;;;;;;;;26.10;99.90;;;;;;1916902;74;20235;-81
2021/09/14 04:52:03;;;;;;;;;;;26.10;99.90;;;;;;1924425;74;20275;-81
2021/09/14 04:54:32;;;;;;;;;;;26.20;99.90;;;;;;1929311;74;20184;-81
2021/09/14 05:00:07;;;;;;;;;;;26.20;99.90;;;;;;1905453;75;20271;-78
2021/09/14 05:02:39;;;;;;;;;;;26.10;99.90;;;;;;1904889;75;20194;-78
2021/09/14 05:05:09;;;;;;;;;;;26.20;99.90;;;;;;1894221;75;20316;-79
2021/09/14 05:07:39;;;;;;;;;;;26.20;99.90;;;;;;1893524;76;20216;-79
2021/09/14 05:10:45;;;;;;;;;;;26.20;99.90;;;;;;1899390;75;20256;-78
2021/09/14 05:16:24;;;;;;;;;;;26.20;99.90;;;;;;1905365;75;20305;-79
2021/09/14 05:18:54;;;;;;;;;;;26.30;99.90;;;;;;1904927;75;20182;-80
2021/09/14 05:21:24;;;;;;;;;;;26.30;99.90;;;;;;1904927;75;20205;-80
2021/09/14 05:23:53;;;;;;;;;;;26.40;99.90;;;;;;1905316;75;20186;-80
2021/09/14 05:26:24;;;;;;;;;;;26.40;99.90;;;;;;1905281;75;20181;-80
2021/09/14 05:28:54;;;;;;;;;;;26.40;99.90;;;;;;1905196;75;20210;-80
2021/09/14 05:31:24;;;;;;;;;;;26.50;99.90;;;;;;1905046;75;20174;-80
2021/09/14 05:33:54;;;;;;;;;;;26.50;99.90;;;;;;1905476;75;20492;-80
2021/09/14 05:36:23;;;;;;;;;;;26.50;99.90;;;;;;1906887;74;20175;-80
2021/09/14 05:38:53;;;;;;;;;;;26.60;99.90;;;;;;1915070;75;20180;-80
2021/09/14 05:41:22;;;;;;;;;;;26.60;99.90;;;;;;1915112;75;20145;-80
2021/09/14 05:43:52;;;;;;;;;;;26.60;99.90;;;;;;1915190;75;20192;-79
2021/09/14 05:46:21;;;;;;;;;;;26.70;99.90;;;;;;1915229;75;20593;-80
2021/09/14 05:48:52;;;;;;;;;;;26.80;99.90;;;;;;1915151;75;20247;-79
2021/09/14 05:51:21;;;;;;;;;;;26.80;99.90;;;;;;1913808;75;20220;-79
2021/09/14 05:53:51;;;;;;;;;;;26.90;99.90;;;;;;1911551;75;20270;-80
2021/09/14 05:56:21;;;;;;;;;;;26.90;99.90;;;;;;1911363;75;20244;-77
2021/09/14 05:58:50;;;;;;;;;;;27.00;99.90;;;;;;1910081;73;20225;-78
2021/09/14 06:01:20;;;;;;;;;;;27.00;99.90;;;;;;1910606;75;20149;-78
2021/09/14 06:03:50;;;;;;;;;;;27.10;99.90;;;;;;1911052;75;20204;-78
2021/09/14 06:09:42;;;;;;;;;;;27.10;99.90;;;;;;1911059;75;20444;-77
2021/09/14 06:12:11;;;;;;;;;;;27.10;99.90;;;;;;1910634;75;20420;-77
2021/09/14 06:14:41;;;;;;;;;;;27.10;99.90;;;;;;1910889;75;20200;-78
2021/09/14 06:17:11;;;;;;;;;;;27.10;99.90;;;;;;1910887;75;20181;-77
2021/09/14 06:19:41;;;;;;;;;;;27.20;99.90;;;;;;1910912;75;20246;-78
2021/09/14 06:22:10;;;;;;;;;;;27.20;99.90;;;;;;1908482;75;20177;-79
2021/09/14 06:24:40;;;;;;;;;;;27.20;99.90;;;;;;1911081;75;20487;-79
2021/09/14 06:27:10;;;;;;;;;;;27.20;99.90;;;;;;1911126;75;20268;-79
2021/09/14 06:29:39;;;;;;;;;;;27.30;99.90;;;;;;1909399;75;20475;-79
2021/09/14 06:32:09;;;;;;;;;;;27.30;99.90;;;;;;1910877;75;20212;-80
2021/09/14 06:34:39;;;;;;;;;;;27.30;99.90;;;;;;1911380;75;20224;-79
2021/09/14 06:37:09;;;;;;;;;;;27.30;99.90;;;;;;1911251;75;20236;-79
2021/09/14 06:39:38;;;;;;;;;;;27.30;99.90;;;;;;1911482;75;20212;-78
2021/09/14 06:42:08;;;;;;;;;;;27.30;99.90;;;;;;1906275;75;20200;-80
2021/09/14 06:44:40;;;;;;;;;;;27.30;99.90;;;;;;1909483;75;20153;-78
2021/09/14 06:47:10;;;;;;;;;;;27.30;99.90;;;;;;1909675;75;20170;-78
2021/09/14 06:49:40;;;;;;;;;;;27.30;99.90;;;;;;1910348;75;20212;-79
2021/09/14 06:52:11;;;;;;;;;;;27.40;99.90;;;;;;1912458;74;20204;-78
2021/09/14 06:54:40;;;;;;;;;;;27.40;99.90;;;;;;1908769;75;20624;-78
2021/09/14 06:57:10;;;;;;;;;;;27.50;99.90;;;;;;1900022;75;20149;-79
2021/09/14 06:59:39;;;;;;;;;;;27.50;99.90;;;;;;1914685;75;20188;-77
2021/09/14 07:02:09;;;;;;;;;;;27.60;99.90;;;;;;1914461;75;20236;-77
2021/09/14 07:07:49;;;;;;;;;;;27.70;99.90;;;;;;1901555;75;20465;-77
2021/09/14 07:10:18;;;;;;;;;;;27.80;99.90;;;;;;1902361;75;20164;-77
2021/09/14 07:12:48;;;;;;;;;;;27.90;99.90;;;;;;1904780;75;20239;-77
2021/09/14 07:15:19;;;;;;;;;;;28.00;99.90;;;;;;1913075;75;20176;-77
2021/09/14 07:17:49;;;;;;;;;;;28.00;99.90;;;;;;1914103;75;20208;-76
2021/09/14 07:20:18;;;;;;;;;;;28.10;99.90;;;;;;1914274;75;20286;-76
2021/09/14 07:22:49;;;;;;;;;;;28.10;99.90;;;;;;1914471;75;20219;-77
2021/09/14 07:25:46;;;;;;;;;;;28.20;99.90;;;;;;1848045;78;20244;-77
2021/09/14 07:28:16;;;;;;;;;;;28.20;99.90;;;;;;1844678;78;20244;-77
2021/09/14 07:30:46;;;;;;;;;;;28.30;99.90;;;;;;1827685;78;20192;-77
2021/09/14 07:33:16;;;;;;;;;;;28.30;99.90;;;;;;1848287;78;20229;-76
2021/09/14 07:35:46;;;;;;;;;;;28.30;99.90;;;;;;1840915;78;20192;-77
2021/09/14 07:38:15;;;;;;;;;;;28.30;99.90;;;;;;1812263;78;20215;-77
2021/09/14 07:40:45;;;;;;;;;;;28.30;99.90;;;;;;1848510;78;20224;-77
2021/09/14 07:43:15;;;;;;;;;;;28.30;99.90;;;;;;1846588;78;20494;-77
2021/09/14 07:45:45;;;;;;;;;;;28.30;99.90;;;;;;1847820;78;20228;-76
2021/09/14 07:48:15;;;;;;;;;;;28.30;99.90;;;;;;1848543;78;20267;-77
2021/09/14 07:50:44;;;;;;;;;;;28.30;99.90;;;;;;1848512;78;20585;-77
2021/09/14 07:53:14;;;;;;;;;;;28.40;99.90;;;;;;1844632;77;20519;-77
2021/09/14 07:55:44;;;;;;;;;;;28.40;99.90;;;;;;1842508;78;20229;-76
2021/09/14 07:58:14;;;;;;;;;;;28.40;99.90;;;;;;1842791;78;20286;-77
2021/09/14 08:00:44;;;;;;;;;;;28.40;99.90;;;;;;1842521;78;20166;-77
2021/09/14 08:03:14;;;;;;;;;;;28.40;99.90;;;;;;1878562;75;20239;-77
2021/09/14 08:05:44;;;;;;;;;;;28.40;99.90;;;;;;1921153;75;20234;-77
2021/09/14 08:08:14;;;;;;;;;;;28.40;99.90;;;;;;1921199;75;20163;-77
2021/09/14 08:10:44;;;;;;;;;;;28.30;99.90;;;;;;1921250;75;20203;-77
2021/09/14 08:13:15;;;;;;;;;;;28.30;99.90;;;;;;1916908;74;20250;-76
2021/09/14 08:15:45;;;;;;;;;;;28.30;99.90;;;;;;1920868;75;20235;-77
2021/09/14 08:18:17;;;;;;;;;;;28.30;99.90;;;;;;1905290;73;20209;-76
2021/09/14 08:21:00;;;;;;;;;;;28.30;99.90;;;;;;1905969;73;20556;-77
2021/09/14 08:23:32;;;;;;;;;;;28.30;99.90;;;;;;1900620;73;20144;-78
2021/09/14 08:26:02;;;;;;;;;;;28.30;99.90;;;;;;1906268;74;20192;-77
2021/09/14 08:28:31;;;;;;;;;;;28.30;99.90;;;;;;1898705;75;20251;-77
2021/09/14 08:31:01;;;;;;;;;;;28.40;99.90;;;;;;1897405;74;20189;-77
2021/09/14 08:33:30;;;;;;;;;;;28.40;99.90;;;;;;1904836;74;20576;-78
2021/09/14 08:36:07;;;;;;;;;;;28.40;99.90;;;;;;1891832;75;20167;-80
2021/09/14 08:38:44;;;;;;;;;;;28.40;99.90;;;;;;1887032;75;20220;-78
2021/09/14 08:41:14;;;;;;;;;;;28.40;99.90;;;;;;1855231;75;20175;-78
2021/09/14 08:43:45;;;;;;;;;;;28.40;99.90;;;;;;1843367;77;20214;-79
2021/09/14 08:46:20;;;;;;;;;;;28.30;99.90;;;;;;1849438;75;20238;-77
2021/09/14 08:48:49;;;;;;;;;;;28.30;99.90;;;;;;1856724;75;20430;-75
2021/09/14 08:51:20;;;;;;;;;;;28.30;99.90;;;;;;1858862;77;20546;-79
2021/09/14 08:53:51;;;;;;;;;;;28.30;99.90;;;;;;1847497;75;20237;-79
2021/09/14 08:56:20;;;;;;;;;;;28.30;99.90;;;;;;1846363;77;20184;-79
2021/09/14 08:59:04;;;;;;;;;;;;;;;;;;;;;
2021/09/14 09:01:41;;;;;;;;;;;28.20;99.90;;;;;;1839615;77;20172;-80
2021/09/14 09:04:13;;;;;;;;;;;28.30;99.90;;;;;;1849494;77;20116;-76
2021/09/14 09:06:42;;;;;;;;;;;;;;;;;;1847569;78;20129;-76
2021/09/14 09:09:32;;;;;;;;;;;28.20;99.90;;;;;;1850118;77;20250;-77
2021/09/14 09:12:11;;;;;;;;;;;28.20;99.90;;;;;;1849139;77;20181;-77
2021/09/14 09:14:47;;;;;;;;;;;28.20;99.90;;;;;;1832316;78;20284;-77
2021/09/14 09:17:21;;;;;;;;;;;28.20;99.90;;;;;;1832155;78;20147;-77
2021/09/14 09:19:52;;;;;;;;;;;28.20;99.90;;;;;;1851071;77;20341;-78
2021/09/14 09:22:23;;;;;;;;;;;28.20;99.90;;;;;;1830214;78;20229;-79
2021/09/14 09:24:54;;;;;;;;;;;28.20;99.90;;;;;;1849592;77;20257;-78
2021/09/14 09:27:33;;;;;;;;;;;28.10;99.90;;;;;;1847926;77;20199;-77
2021/09/14 09:30:24;;;;;;;;;;;28.10;99.90;;;;;;1804173;78;20440;-78
2021/09/14 09:32:49;;;;;;;;;;;28.10;99.90;;;;;;1889836;75;20262;-78
2021/09/14 09:35:24;;;;;;;;;;;28.10;99.90;;;;;;1896489;75;20815;-78
2021/09/14 09:37:57;;;;;;;;;;;28.10;99.90;;;;;;1888982;74;20255;-77
2021/09/14 09:40:30;;;;;;;;;;;28.00;99.90;;;;;;1891448;75;20286;-77
2021/09/14 09:43:03;;;;;;;;;;;28.00;99.90;;;;;;1888464;75;20501;-77
2021/09/14 09:45:32;;;;;;;;;;;28.00;99.90;;;;;;1886916;73;20408;-79
2021/09/14 09:48:02;;;;;;;;;;;28.00;99.90;;;;;;1898778;73;20490;-78
2021/09/14 09:53:24;;;;;;;;;;;28.00;99.90;;;;;;1863824;76;20267;-77
2021/09/14 09:55:56;;;;;;;;;;;28.00;99.90;;;;;;1860574;76;20234;-76
2021/09/14 09:58:26;;;;;;;;;;;28.00;99.90;;;;;;1859481;76;20209;-75
2021/09/14 10:00:57;;;;;;;;;;;27.90;99.90;;;;;;1868471;76;20180;-77
2021/09/14 10:03:29;;;;;;;;;;;27.90;99.90;;;;;;1857691;76;20598;-77
2021/09/14 10:06:00;;;;;;;;;;;27.90;99.90;;;;;;1866515;76;20129;-77
2021/09/14 10:11:38;;;;;;;;;;;27.90;99.90;;;;;;1780974;79;20275;-77
2021/09/14 10:14:07;;;;;;;;;;;27.90;99.90;;;;;;1781791;79;20183;-77
2021/09/14 10:16:45;;;;;;;;;;;27.90;99.90;;;;;;1737094;82;20606;-77
2021/09/14 10:19:10;;;;;;;;;;;27.90;99.90;;;;;;1704362;83;20228;-77
2021/09/14 10:21:41;;;;;;;;;;;27.90;99.90;;;;;;1757459;82;20499;-76
2021/09/14 10:24:12;;;;;;;;;;;27.90;99.90;;;;;;1743533;80;20263;-78
2021/09/14 10:26:42;;;;;;;;;;;27.80;99.90;;;;;;1738764;80;20235;-79
2021/09/14 10:29:13;;;;;;;;;;;27.90;99.90;;;;;;1732680;81;20180;-78
2021/09/14 10:31:43;;;;;;;;;;;27.80;99.90;;;;;;1784129;78;20261;-79
2021/09/14 10:34:15;;;;;;;;;;;27.80;99.90;;;;;;1788868;79;20249;-79
2021/09/14 10:36:46;;;;;;;;;;;27.80;99.90;;;;;;1786361;80;20179;-79
2021/09/14 10:42:21;;;;;;;;;;;27.70;99.90;;;;;;1717065;83;20564;-78
2021/09/14 10:48:01;;;;;;;;;;;27.70;99.90;;;;;;1712525;82;20571;-79
2021/09/14 10:50:32;;;;;;;;;;;27.70;99.90;;;;;;1756553;82;20146;-79
2021/09/14 10:56:12;;;;;;;;;;;27.60;99.90;;;;;;1764080;81;20204;-78
2021/09/14 10:58:42;;;;;;;;;;;27.60;99.90;;;;;;1770526;80;20198;-79
2021/09/14 11:01:13;;;;;;;;;;;27.60;99.90;;;;;;1753362;80;20282;-78
2021/09/14 11:03:43;;;;;;;;;;;27.60;99.90;;;;;;1789981;80;20213;-79
2021/09/14 11:06:13;;;;;;;;;;;27.60;99.90;;;;;;1766446;81;20197;-79
2021/09/14 11:08:45;;;;;;;;;;;27.50;99.90;;;;;;1765530;81;20180;-79
2021/09/14 11:11:18;;;;;;;;;;;27.50;99.90;;;;;;1764684;81;20228;-79
2021/09/14 11:13:46;;;;;;;;;;;27.50;99.90;;;;;;1768319;80;20558;-77
2021/09/14 11:16:17;;;;;;;;;;;27.40;99.90;;;;;;1764477;80;20250;-80
2021/09/14 11:18:47;;;;;;;;;;;27.40;99.90;;;;;;1791007;76;20188;-81
2021/09/14 11:21:17;;;;;;;;;;;27.40;99.90;;;;;;1877696;76;20214;-78
2021/09/14 11:23:48;;;;;;;;;;;27.40;99.90;;;;;;1877470;76;20203;-77
2021/09/14 11:26:19;;;;;;;;;;;27.40;99.90;;;;;;1859327;77;20208;-77
2021/09/14 11:28:49;;;;;;;;;;;27.40;99.90;;;;;;1860994;76;20180;-79
2021/09/14 11:31:22;;;;;;;;;;;27.30;99.90;;;;;;1870817;76;20129;-81
2021/09/14 11:33:52;;;;;;;;;;;27.30;99.90;;;;;;1873878;75;20250;-81
2021/09/14 11:36:21;;;;;;;;;;;27.30;99.90;;;;;;1838576;77;20202;-81
2021/09/14 11:38:52;;;;;;;;;;;27.30;99.90;;;;;;1851064;76;20194;-81
2021/09/14 11:41:22;;;;;;;;;;;27.30;99.90;;;;;;1838121;77;20168;-81
2021/09/14 11:43:51;;;;;;;;;;;27.30;99.90;;;;;;1825107;79;20209;-80
2021/09/14 11:46:21;;;;;;;;;;;27.30;99.90;;;;;;1825142;79;20181;-79
2021/09/14 11:48:53;;;;;;;;;;;27.30;99.90;;;;;;1855331;77;20156;-80
2021/09/14 11:51:23;;;;;;;;;;;27.30;99.90;;;;;;1854962;77;20132;-80
2021/09/14 11:53:53;;;;;;;;;;;27.30;99.90;;;;;;1850552;76;20211;-80
2021/09/14 11:56:24;;;;;;;;;;;27.30;99.90;;;;;;1849901;76;20271;-78
2021/09/14 11:58:54;;;;;;;;;;;27.30;99.90;;;;;;1842763;77;20247;-78
2021/09/14 12:01:25;;;;;;;;;;;27.20;99.90;;;;;;1834198;78;20229;-78
2021/09/14 12:03:55;;;;;;;;;;;27.20;99.90;;;;;;1831048;78;20160;-78
2021/09/14 12:06:26;;;;;;;;;;;27.20;99.90;;;;;;1844707;78;20230;-79
2021/09/14 12:08:57;;;;;;;;;;;27.20;99.90;;;;;;1829500;77;20151;-78
2021/09/14 12:11:28;;;;;;;;;;;27.20;99.90;;;;;;1838812;76;20561;-77
2021/09/14 12:13:59;;;;;;;;;;;27.20;99.90;;;;;;1828338;78;20180;-78
2021/09/14 12:16:32;;;;;;;;;;;27.20;99.90;;;;;;1847150;78;20462;-78
2021/09/14 12:19:00;;;;;;;;;;;27.10;99.90;;;;;;1816721;79;20220;-78
2021/09/14 12:21:30;;;;;;;;;;;27.10;99.90;;;;;;1822683;78;20490;-78
2021/09/14 12:24:00;;;;;;;;;;;27.10;99.90;;;;;;1847116;78;20240;-78
2021/09/14 12:26:38;;;;;;;;;;;27.00;99.90;;;;;;1846283;78;20274;-78
2021/09/14 12:29:01;;;;;;;;;;;27.00;99.90;;;;;;1846531;77;20497;-77
2021/09/14 12:31:31;;;;;;;;;;;27.00;99.90;;;;;;1841422;78;20377;-78
2021/09/14 12:34:01;;;;;;;;;;;26.90;99.90;;;;;;1842524;76;20285;-77
2021/09/14 12:36:32;;;;;;;;;;;27.00;99.90;;;;;;1846977;78;20276;-77
2021/09/14 12:39:02;;;;;;;;;;;26.90;99.90;;;;;;1849560;78;20204;-77
2021/09/14 12:41:32;;;;;;;;;;;26.90;99.90;;;;;;1848140;78;20410;-77
2021/09/14 12:44:03;;;;;;;;;;;26.90;99.90;;;;;;1848707;78;20228;-78
2021/09/14 12:46:33;;;;;;;;;;;26.90;99.90;;;;;;1847098;78;20187;-78
2021/09/14 12:49:03;;;;;;;;;;;26.90;99.90;;;;;;1846527;78;20170;-79
2021/09/14 12:54:34;;;;;;;;;;;26.90;99.90;;;;;;1728095;82;20319;-78
2021/09/14 12:57:05;;;;;;;;;;;26.90;99.90;;;;;;1722789;82;20149;-79
2021/09/14 12:59:35;;;;;;;;;;;26.90;99.90;;;;;;1726940;83;20217;-79
2021/09/14 13:02:06;;;;;;;;;;;26.90;99.90;;;;;;1730080;83;20238;-80
2021/09/14 13:04:36;;;;;;;;;;;26.90;99.90;;;;;;1728951;83;20290;-78
2021/09/14 13:07:05;;;;;;;;;;;26.90;99.90;;;;;;1729748;83;20374;-79
2021/09/14 13:09:35;;;;;;;;;;;26.90;99.90;;;;;;1728609;82;20359;-77
2021/09/14 13:12:08;;;;;;;;;;;26.90;99.90;;;;;;1729781;83;20579;-78
2021/09/14 13:17:10;;;;;;;;;;;26.90;99.90;;;;;;1727995;83;20240;-78
2021/09/14 13:19:39;;;;;;;;;;;26.90;99.90;;;;;;1729467;83;20245;-79
2021/09/14 13:22:09;;;;;;;;;;;27.00;99.90;;;;;;1729781;83;20217;-78
2021/09/14 13:24:39;;;;;;;;;;;27.00;99.90;;;;;;1729698;83;20696;-79
2021/09/14 13:27:09;;;;;;;;;;;27.00;99.90;;;;;;1730022;83;20230;-82
2021/09/14 13:29:38;;;;;;;;;;;27.00;99.90;;;;;;1729562;83;20509;-82
2021/09/14 13:32:08;;;;;;;;;;;27.00;99.90;;;;;;1793601;77;20193;-81
2021/09/14 13:34:37;;;;;;;;;;;27.00;99.90;;;;;;1888980;76;20150;-80
2021/09/14 13:37:07;;;;;;;;;;;27.00;99.90;;;;;;1888769;76;20212;-81
2021/09/14 13:39:37;;;;;;;;;;;27.10;99.90;;;;;;1881831;76;20219;-81
2021/09/14 13:42:08;;;;;;;;;;;27.10;99.90;;;;;;1883185;76;20199;-81
2021/09/14 13:47:08;;;;;;;;;;;27.10;99.90;;;;;;1853357;76;20704;-80
2021/09/14 13:49:38;;;;;;;;;;;27.10;99.90;;;;;;1855576;77;20213;-79
2021/09/14 13:52:14;;;;;;;;;;;27.10;99.90;;;;;;1856237;76;20835;-93
2021/09/14 13:55:05;;;;;;;;;;;27.10;99.90;;;;;;1870746;76;20188;-92
2021/09/14 13:57:35;;;;;;;;;;;27.10;99.90;;;;;;1863081;76;20234;-94
2021/09/14 14:00:08;;;;;;;;;;;27.10;99.90;;;;;;1870535;76;20186;-92
2021/09/14 14:02:57;;;;;;;;;;;27.10;99.90;;;;;;1842119;77;20175;-93
2021/09/14 14:05:34;;;;;;;;;;;27.10;99.90;;;;;;1866122;77;20128;-95
2021/09/14 14:08:22;;;;;;;;;;;27.20;99.90;;;;;;1848329;77;20175;-93
2021/09/14 14:10:53;;;;;;;;;;;27.10;99.90;;;;;;1870313;77;20194;-94
2021/09/14 14:13:27;;;;;;;;;;;27.10;99.90;;;;;;1878745;73;20214;-94
2021/09/14 14:16:08;;;;;;;;;;;27.10;99.90;;;;;;1888319;75;20128;-94
2021/09/14 14:19:05;;;;;;;;;;;27.10;99.90;;;;;;1881242;75;20253;-93
2021/09/14 14:21:47;;;;;;;;;;;27.10;99.90;;;;;;1908859;75;20208;-93
2021/09/14 14:24:28;;;;;;;;;;;27.10;99.90;;;;;;1849630;77;20166;-91
2021/09/14 14:27:13;;;;;;;;;;;27.10;99.90;;;;;;1849322;75;20176;-91
2021/09/14 14:30:02;;;;;;;;;;;27.10;99.90;;;;;;1852905;77;20144;-94
2021/09/14 14:32:52;;;;;;;;;;;27.10;99.90;;;;;;1887101;75;20195;-91
2021/09/14 14:35:40;;;;;;;;;;;27.10;99.90;;;;;;1866348;75;20148;-93
2021/09/14 14:38:12;;;;;;;;;;;27.10;99.90;;;;;;1872651;75;20221;-94
2021/09/14 14:41:03;;;;;;;;;;;27.10;99.90;;;;;;1846860;75;20133;-94
2021/09/14 14:43:52;;;;;;;;;;;27.10;99.90;;;;;;1852910;76;20206;-92
2021/09/14 14:46:29;;;;;;;;;;;27.10;99.90;;;;;;1854820;75;20222;-93
2021/09/14 14:49:19;;;;;;;;;;;27.10;99.90;;;;;;1890785;75;20159;-91
2021/09/14 15:00:10;;;;;;;;;;;27.10;99.90;;;;;;1889964;73;20219;-94
2021/09/14 15:14:15;;;;;;;;;;;27.10;99.90;;;;;;1839369;77;20613;-94
2021/09/14 15:16:55;;;;;;;;;;;27.10;99.90;;;;;;1797142;75;20176;-92
2021/09/14 15:19:44;;;;;;;;;;;27.10;99.90;;;;;;1852071;78;20266;-92
2021/09/14 15:25:41;;;;;;;;;;;27.00;99.90;;;;;;1875124;76;20149;-92
2021/09/14 15:28:12;;;;;;;;;;;27.00;99.90;;;;;;1867597;76;20199;-93
2021/09/14 15:30:46;;;;;;;;;;;27.00;99.90;;;;;;1874235;76;20166;-92
2021/09/14 15:33:19;;;;;;;;;;;27.00;99.90;;;;;;1863223;76;20129;-93
2021/09/14 15:36:07;;;;;;;;;;;27.00;99.90;;;;;;1865640;76;20154;-94
2021/09/14 15:38:42;;;;;;;;;;;26.90;99.90;;;;;;1862572;77;20173;-92
2021/09/14 15:41:16;;;;;;;;;;;26.90;99.90;;;;;;1863996;76;20180;-93
2021/09/14 15:46:58;;;;;;;;;;;26.80;99.90;;;;;;1752850;82;20183;-94
2021/09/14 15:49:46;;;;;;;;;;;26.80;99.90;;;;;;1757695;80;20184;-93
2021/09/14 15:55:29;;;;;;;;;;;26.80;99.90;;;;;;1709620;83;20256;-92
2021/09/14 15:58:17;;;;;;;;;;;26.70;99.90;;;;;;1703227;82;20183;-92
2021/09/14 16:00:48;;;;;;;;;;;26.70;99.90;;;;;;1726955;82;20183;-93
2021/09/14 16:03:20;;;;;;;;;;;26.70;99.90;;;;;;1749350;81;20182;-91
2021/09/14 16:06:23;;;;;;;;;;;26.70;99.90;;;;;;1733873;81;20213;-93
2021/09/14 16:12:37;;;;;;;;;;;26.70;99.90;;;;;;1868319;75;20144;-92
2021/09/14 16:15:01;;;;;;;;;;;26.70;99.90;;;;;;1828112;77;20103;-94
2021/09/14 16:17:44;;;;;;;;;;;26.60;99.90;;;;;;1794889;77;20319;-93
2021/09/14 16:28:58;;;;;;;;;;;26.70;99.90;;;;;;1730249;79;20240;-93
2021/09/14 16:31:34;;;;;;;;;;;26.70;99.90;;;;;;1697344;81;20332;-93
2021/09/14 16:34:23;;;;;;;;;;;26.70;99.90;;;;;;1780322;80;20166;-94
2021/09/14 16:37:12;;;;;;;;;;;26.70;99.90;;;;;;1813889;77;20232;-94
2021/09/14 16:51:05;;;;;;;;;;;26.70;99.90;;;;;;1792975;78;20365;-92
2021/09/14 16:56:21;;;;;;;;;;;26.70;99.90;;;;;;1748014;79;20222;-92
2021/09/14 16:58:51;;;;;;;;;;;26.60;99.90;;;;;;1751293;80;20204;-93
2021/09/14 17:01:25;;;;;;;;;;;26.60;99.90;;;;;;1759853;79;20207;-92
2021/09/14 17:03:56;;;;;;;;;;;26.60;99.90;;;;;;1769912;81;20183;-93
2021/09/14 17:06:28;;;;;;;;;;;26.60;99.90;;;;;;1768236;81;20132;-94
2021/09/14 17:08:58;;;;;;;;;;;26.60;99.90;;;;;;1771352;80;20231;-94
2021/09/14 17:14:25;;;;;;;;;;;26.60;99.90;;;;;;1720395;82;20165;-94
2021/09/14 17:16:57;;;;;;;;;;;26.60;99.90;;;;;;1720017;83;20216;-94
2021/09/14 17:19:31;;;;;;;;;;;26.60;99.90;;;;;;1725347;82;20236;-94
2021/09/14 17:22:19;;;;;;;;;;;26.60;99.90;;;;;;1724968;82;20241;-93
2021/09/14 17:24:49;;;;;;;;;;;26.50;99.90;;;;;;1726011;82;20167;-93
2021/09/14 17:31:08;;;;;;;;;;;26.50;99.90;;;;;;1624587;85;20243;-93
2021/09/14 18:08:00;;;;;;;;;;;26.30;99.90;;;;;;1736115;81;20193;-87
2021/09/14 18:10:31;;;;;;;;;;;26.20;99.90;;;;;;1789954;79;20253;-87
2021/09/14 18:13:00;;;;;;;;;;;26.20;99.90;;;;;;1762134;81;20141;-86
2021/09/14 18:15:30;;;;;;;;;;;26.30;99.90;;;;;;1772143;79;20254;-86
2021/09/14 18:26:59;;;;;;;;;;;26.20;99.90;;;;;;1789891;80;20207;-86
2021/09/14 18:29:28;;;;;;;;;;;26.20;99.90;;;;;;1768630;80;20170;-88
2021/09/14 18:35:08;;;;;;;;;;;26.20;99.90;;;;;;1758759;82;20538;-87
2021/09/14 18:37:38;;;;;;;;;;;26.30;99.90;;;;;;1758667;82;20216;-87
2021/09/14 18:40:07;;;;;;;;;;;26.30;99.90;;;;;;1758563;82;20248;-87
2021/09/14 18:45:46;;;;;;;;;;;26.30;99.90;;;;;;1737362;82;20219;-88
2021/09/14 18:48:16;;;;;;;;;;;26.30;99.90;;;;;;1736577;83;20216;-88
2021/09/14 18:50:45;;;;;;;;;;;26.20;99.90;;;;;;1729099;81;20286;-87
2021/09/14 18:53:15;;;;;;;;;;;26.30;99.90;;;;;;1739891;81;20190;-87
2021/09/14 18:55:44;;;;;;;;;;;26.30;99.90;;;;;;1746173;81;20271;-87
2021/09/14 18:58:14;;;;;;;;;;;26.30;99.90;;;;;;1791815;79;20273;-87
2021/09/14 19:00:45;;;;;;;;;;;26.20;99.90;;;;;;1790872;80;20456;-88
2021/09/14 19:03:15;;;;;;;;;;;26.20;99.90;;;;;;1785559;80;20175;-86
2021/09/14 19:05:46;;;;;;;;;;;26.20;99.90;;;;;;1785347;80;20174;-88
2021/09/14 19:08:16;;;;;;;;;;;26.20;99.90;;;;;;1787756;79;20190;-87